sensor_id;sensor_type;location;lat;lon;timestamp;pressure;altitude;pressure_sealevel;temperature;humidity
69971;BME280;57301;50.328;8.542;2022-09-09T00:01:21;97968.22;;;16.52;76.72
69971;BME280;57301;50.328;8.542;2022-09-09T00:03:57;97960.75;;;16.61;76.46
69971;BME280;57301;50.328;8.542;2022-09-09T00:06:45;97958.06;;;16.54;76.61
69971;BME280;57301;50.328;8.542;2022-09-09T00:09:18;97960.13;;;16.39;76.36
69971;BME280;57301;50.328;8.542;2022-09-09T00:11:54;97949.38;;;16.46;76.35
69971;BME280;57301;50.328;8.542;2022-09-09T00:16:55;97946.41;;;16.21;76.64
69971;BME280;57301;50.328;8.542;2022-09-09T00:19:33;97944.81;;;16.39;75.92
69971;BME280;57301;50.328;8.542;2022-09-09T00:22:16;97945.84;;;16.45;75.01
69971;BME280;57301;50.328;8.542;2022-09-09T00:27:23;97950.81;;;16.48;74.89
69971;BME280;57301;50.328;8.542;2022-09-09T00:30:17;97946.47;;;16.60;74.87
69971;BME280;57301;50.328;8.542;2022-09-09T00:32:47;97938.84;;;16.64;74.53
69971;BME280;57301;50.328;8.542;2022-09-09T00:35:31;97940.66;;;16.44;75.19
69971;BME280;57301;50.328;8.542;2022-09-09T00:38:16;97946.88;;;16.51;75.27
69971;BME280;57301;50.328;8.542;2022-09-09T00:41:00;97944.38;;;16.49;74.62
69971;BME280;57301;50.328;8.542;2022-09-09T00:46:05;97940.47;;;16.58;73.78
69971;BME280;57301;50.328;8.542;2022-09-09T00:51:15;97943.34;;;16.44;74.26
69971;BME280;57301;50.328;8.542;2022-09-09T00:56:43;97951.03;;;16.47;74.00
69971;BME280;57301;50.328;8.542;2022-09-09T01:01:53;97955.09;;;16.23;74.34
69971;BME280;57301;50.328;8.542;2022-09-09T01:04:29;97950.56;;;16.23;74.42
69971;BME280;57301;50.328;8.542;2022-09-09T01:07:10;97948.47;;;16.25;74.76
69971;BME280;57301;50.328;8.542;2022-09-09T01:09:52;97945.19;;;16.30;74.48
69971;BME280;57301;50.328;8.542;2022-09-09T01:12:30;97949.72;;;16.23;74.66
69971;BME280;57301;50.328;8.542;2022-09-09T01:15:10;97944.13;;;16.18;75.11
69971;BME280;57301;50.328;8.542;2022-09-09T01:18:00;97947.16;;;16.01;75.57
69971;BME280;57301;50.328;8.542;2022-09-09T01:21:02;97945.50;;;16.00;75.56
69971;BME280;57301;50.328;8.542;2022-09-09T01:24:04;97946.50;;;15.86;76.32
69971;BME280;57301;50.328;8.542;2022-09-09T01:26:39;97951.44;;;15.82;76.88
69971;BME280;57301;50.328;8.542;2022-09-09T01:29:13;97949.41;;;15.84;76.46
69971;BME280;57301;50.328;8.542;2022-09-09T01:31:51;97958.28;;;15.85;76.19
69971;BME280;57301;50.328;8.542;2022-09-09T01:34:18;97951.25;;;15.84;76.24
69971;BME280;57301;50.328;8.542;2022-09-09T01:37:04;97952.94;;;15.92;76.02
69971;BME280;57301;50.328;8.542;2022-09-09T01:39:33;97955.22;;;15.95;76.07
69971;BME280;57301;50.328;8.542;2022-09-09T01:42:02;97957.91;;;15.95;75.74
69971;BME280;57301;50.328;8.542;2022-09-09T01:44:29;97949.66;;;16.03;75.71
69971;BME280;57301;50.328;8.542;2022-09-09T01:46:56;97956.72;;;16.10;75.49
69971;BME280;57301;50.328;8.542;2022-09-09T01:49:23;97943.03;;;16.05;75.38
69971;BME280;57301;50.328;8.542;2022-09-09T01:51:53;97942.34;;;15.83;76.61
69971;BME280;57301;50.328;8.542;2022-09-09T01:54:22;97949.75;;;15.75;76.84
69971;BME280;57301;50.328;8.542;2022-09-09T01:57:21;97951.16;;;15.64;77.57
69971;BME280;57301;50.328;8.542;2022-09-09T02:00:15;97957.69;;;15.55;78.27
69971;BME280;57301;50.328;8.542;2022-09-09T02:08:37;97950.00;;;15.52;78.46
69971;BME280;57301;50.328;8.542;2022-09-09T02:11:11;97956.84;;;15.48;79.08
69971;BME280;57301;50.328;8.542;2022-09-09T02:13:39;97949.13;;;15.38;79.51
69971;BME280;57301;50.328;8.542;2022-09-09T02:18:51;97949.44;;;15.56;79.46
69971;BME280;57301;50.328;8.542;2022-09-09T02:21:19;97955.81;;;15.49;79.74
69971;BME280;57301;50.328;8.542;2022-09-09T02:23:47;97957.06;;;15.53;78.93
69971;BME280;57301;50.328;8.542;2022-09-09T02:26:19;97951.91;;;15.58;79.37
69971;BME280;57301;50.328;8.542;2022-09-09T02:28:49;97954.22;;;15.61;78.78
69971;BME280;57301;50.328;8.542;2022-09-09T02:31:20;97947.84;;;15.62;78.79
69971;BME280;57301;50.328;8.542;2022-09-09T02:33:52;97955.63;;;15.57;79.42
69971;BME280;57301;50.328;8.542;2022-09-09T02:36:23;97957.94;;;15.60;79.44
69971;BME280;57301;50.328;8.542;2022-09-09T02:38:51;97956.44;;;15.85;78.82
69971;BME280;57301;50.328;8.542;2022-09-09T02:41:23;97956.00;;;15.89;77.88
69971;BME280;57301;50.328;8.542;2022-09-09T02:43:50;97957.66;;;15.90;78.24
69971;BME280;57301;50.328;8.542;2022-09-09T02:49:17;97960.84;;;16.13;77.18
69971;BME280;57301;50.328;8.542;2022-09-09T02:52:09;97955.50;;;16.26;76.37
69971;BME280;57301;50.328;8.542;2022-09-09T02:54:42;97956.56;;;16.32;76.46
69971;BME280;57301;50.328;8.542;2022-09-09T02:57:17;97953.38;;;16.02;77.25
69971;BME280;57301;50.328;8.542;2022-09-09T02:59:46;97959.13;;;15.92;78.13
69971;BME280;57301;50.328;8.542;2022-09-09T03:02:12;97957.75;;;16.09;76.94
69971;BME280;57301;50.328;8.542;2022-09-09T03:04:40;97949.22;;;15.93;78.05
69971;BME280;57301;50.328;8.542;2022-09-09T03:07:08;97946.25;;;15.81;78.77
69971;BME280;57301;50.328;8.542;2022-09-09T03:09:36;97948.38;;;15.85;78.56
69971;BME280;57301;50.328;8.542;2022-09-09T03:12:02;97944.81;;;15.78;79.01
69971;BME280;57301;50.328;8.542;2022-09-09T03:14:30;97950.19;;;15.78;78.88
69971;BME280;57301;50.328;8.542;2022-09-09T03:16:57;97948.94;;;15.74;78.97
69971;BME280;57301;50.328;8.542;2022-09-09T03:19:26;97946.00;;;15.69;79.32
69971;BME280;57301;50.328;8.542;2022-09-09T03:21:54;97932.03;;;15.94;78.09
69971;BME280;57301;50.328;8.542;2022-09-09T03:24:20;97929.91;;;15.76;78.19
69971;BME280;57301;50.328;8.542;2022-09-09T03:26:47;97931.31;;;15.65;79.40
69971;BME280;57301;50.328;8.542;2022-09-09T03:29:14;97931.72;;;15.62;79.49
69971;BME280;57301;50.328;8.542;2022-09-09T03:31:41;97936.97;;;15.83;78.26
69971;BME280;57301;50.328;8.542;2022-09-09T03:34:08;97931.38;;;15.78;78.55
69971;BME280;57301;50.328;8.542;2022-09-09T03:36:36;97925.78;;;15.80;78.40
69971;BME280;57301;50.328;8.542;2022-09-09T03:39:03;97928.75;;;15.98;77.16
69971;BME280;57301;50.328;8.542;2022-09-09T03:41:30;97940.41;;;15.71;78.51
69971;BME280;57301;50.328;8.542;2022-09-09T03:43:56;97944.59;;;15.73;78.48
69971;BME280;57301;50.328;8.542;2022-09-09T03:46:25;97940.69;;;15.82;78.21
69971;BME280;57301;50.328;8.542;2022-09-09T03:48:52;97939.28;;;15.93;77.77
69971;BME280;57301;50.328;8.542;2022-09-09T03:51:19;97939.66;;;15.83;78.01
69971;BME280;57301;50.328;8.542;2022-09-09T03:53:45;97944.13;;;15.70;79.06
69971;BME280;57301;50.328;8.542;2022-09-09T03:56:12;97940.97;;;15.59;79.23
69971;BME280;57301;50.328;8.542;2022-09-09T03:58:39;97938.00;;;15.82;78.52
69971;BME280;57301;50.328;8.542;2022-09-09T04:01:11;97948.84;;;15.61;79.26
69971;BME280;57301;50.328;8.542;2022-09-09T04:03:41;97958.19;;;15.65;78.94
69971;BME280;57301;50.328;8.542;2022-09-09T04:06:09;97949.13;;;15.73;78.86
69971;BME280;57301;50.328;8.542;2022-09-09T04:08:37;97952.66;;;15.73;78.49
69971;BME280;57301;50.328;8.542;2022-09-09T04:11:04;97945.19;;;15.75;78.18
69971;BME280;57301;50.328;8.542;2022-09-09T04:13:33;97942.50;;;15.75;78.39
69971;BME280;57301;50.328;8.542;2022-09-09T04:16:01;97943.09;;;15.64;79.07
69971;BME280;57301;50.328;8.542;2022-09-09T04:18:28;97944.00;;;15.78;78.41
69971;BME280;57301;50.328;8.542;2022-09-09T04:20:55;97941.25;;;15.71;78.47
69971;BME280;57301;50.328;8.542;2022-09-09T04:23:25;97946.63;;;15.71;78.81
69971;BME280;57301;50.328;8.542;2022-09-09T04:25:53;97943.28;;;15.63;78.94
69971;BME280;57301;50.328;8.542;2022-09-09T04:28:22;97944.88;;;15.57;78.57
69971;BME280;57301;50.328;8.542;2022-09-09T04:30:49;97938.97;;;15.68;78.45
69971;BME280;57301;50.328;8.542;2022-09-09T04:33:15;97933.38;;;15.70;78.32
69971;BME280;57301;50.328;8.542;2022-09-09T04:35:45;97925.59;;;15.81;78.33
69971;BME280;57301;50.328;8.542;2022-09-09T04:38:12;97930.22;;;16.07;77.51
69971;BME280;57301;50.328;8.542;2022-09-09T04:40:38;97928.75;;;15.98;76.84
69971;BME280;57301;50.328;8.542;2022-09-09T04:43:09;97932.47;;;15.91;77.55
69971;BME280;57301;50.328;8.542;2022-09-09T04:45:40;97933.66;;;15.88;77.26
69971;BME280;57301;50.328;8.542;2022-09-09T04:48:07;97932.97;;;15.66;77.44
69971;BME280;57301;50.328;8.542;2022-09-09T04:50:35;97935.84;;;15.65;78.02
69971;BME280;57301;50.328;8.542;2022-09-09T04:53:02;97936.53;;;15.73;77.30
69971;BME280;57301;50.328;8.542;2022-09-09T04:55:31;97940.91;;;15.88;77.09
69971;BME280;57301;50.328;8.542;2022-09-09T04:58:03;97950.44;;;15.90;76.92
69971;BME280;57301;50.328;8.542;2022-09-09T05:00:30;97961.53;;;15.74;77.33
69971;BME280;57301;50.328;8.542;2022-09-09T05:02:56;97962.34;;;15.68;77.50
69971;BME280;57301;50.328;8.542;2022-09-09T05:05:23;97959.44;;;15.69;77.76
69971;BME280;57301;50.328;8.542;2022-09-09T05:07:49;97957.72;;;15.62;77.73
69971;BME280;57301;50.328;8.542;2022-09-09T05:10:16;97956.84;;;15.89;77.56
69971;BME280;57301;50.328;8.542;2022-09-09T05:12:52;97955.41;;;15.93;76.63
69971;BME280;57301;50.328;8.542;2022-09-09T05:15:19;97954.16;;;15.96;76.99
69971;BME280;57301;50.328;8.542;2022-09-09T05:17:46;97951.75;;;16.14;76.32
69971;BME280;57301;50.328;8.542;2022-09-09T05:20:13;97948.69;;;16.24;75.66
69971;BME280;57301;50.328;8.542;2022-09-09T05:22:42;97958.84;;;15.74;77.38
69971;BME280;57301;50.328;8.542;2022-09-09T05:25:10;97955.22;;;15.95;77.07
69971;BME280;57301;50.328;8.542;2022-09-09T05:27:36;97959.63;;;16.16;76.38
69971;BME280;57301;50.328;8.542;2022-09-09T05:30:04;97963.81;;;16.31;75.67
69971;BME280;57301;50.328;8.542;2022-09-09T05:32:30;97972.09;;;16.36;75.39
69971;BME280;57301;50.328;8.542;2022-09-09T05:35:00;97975.41;;;16.32;75.39
69971;BME280;57301;50.328;8.542;2022-09-09T05:37:27;97975.75;;;16.09;75.77
69971;BME280;57301;50.328;8.542;2022-09-09T05:39:54;97983.25;;;15.72;77.35
69971;BME280;57301;50.328;8.542;2022-09-09T05:42:20;97984.53;;;15.83;77.26
69971;BME280;57301;50.328;8.542;2022-09-09T05:44:47;97987.06;;;15.91;76.92
69971;BME280;57301;50.328;8.542;2022-09-09T05:47:13;97990.38;;;15.93;77.47
69971;BME280;57301;50.328;8.542;2022-09-09T05:49:40;97994.69;;;15.88;78.12
69971;BME280;57301;50.328;8.542;2022-09-09T05:52:07;97995.28;;;15.83;77.57
69971;BME280;57301;50.328;8.542;2022-09-09T05:54:33;97989.31;;;15.88;77.63
69971;BME280;57301;50.328;8.542;2022-09-09T05:57:00;97998.38;;;15.80;78.20
69971;BME280;57301;50.328;8.542;2022-09-09T05:59:27;97991.00;;;15.95;77.25
69971;BME280;57301;50.328;8.542;2022-09-09T06:01:54;97988.94;;;15.91;76.78
69971;BME280;57301;50.328;8.542;2022-09-09T06:04:21;98006.13;;;15.96;76.30
69971;BME280;57301;50.328;8.542;2022-09-09T06:06:48;97994.94;;;15.99;76.01
69971;BME280;57301;50.328;8.542;2022-09-09T06:09:15;98005.84;;;15.84;76.51
69971;BME280;57301;50.328;8.542;2022-09-09T06:11:41;97994.91;;;15.86;76.33
69971;BME280;57301;50.328;8.542;2022-09-09T06:14:08;97989.53;;;15.86;76.84
69971;BME280;57301;50.328;8.542;2022-09-09T06:16:35;97994.91;;;15.86;77.50
69971;BME280;57301;50.328;8.542;2022-09-09T06:19:04;97998.09;;;16.03;76.25
69971;BME280;57301;50.328;8.542;2022-09-09T06:21:35;98001.53;;;15.90;76.63
69971;BME280;57301;50.328;8.542;2022-09-09T06:24:05;97997.16;;;16.37;75.99
69971;BME280;57301;50.328;8.542;2022-09-09T06:26:38;97999.09;;;17.76;70.78
69971;BME280;57301;50.328;8.542;2022-09-09T06:29:08;97998.91;;;18.67;66.65
69971;BME280;57301;50.328;8.542;2022-09-09T06:31:36;97995.50;;;18.78;65.82
69971;BME280;57301;50.328;8.542;2022-09-09T06:34:07;97999.81;;;18.54;66.97
69971;BME280;57301;50.328;8.542;2022-09-09T06:36:36;97996.69;;;19.14;64.34
69971;BME280;57301;50.328;8.542;2022-09-09T06:39:04;97997.88;;;18.23;66.75
69971;BME280;57301;50.328;8.542;2022-09-09T06:41:32;97999.69;;;17.84;68.24
69971;BME280;57301;50.328;8.542;2022-09-09T06:43:59;97990.78;;;17.77;68.58
69971;BME280;57301;50.328;8.542;2022-09-09T06:46:29;97995.19;;;17.45;69.77
69971;BME280;57301;50.328;8.542;2022-09-09T06:48:57;97996.34;;;18.78;64.92
69971;BME280;57301;50.328;8.542;2022-09-09T06:51:35;98000.44;;;19.38;61.78
69971;BME280;57301;50.328;8.542;2022-09-09T06:54:03;97991.69;;;18.54;64.15
69971;BME280;57301;50.328;8.542;2022-09-09T06:56:35;98001.44;;;18.93;64.55
69971;BME280;57301;50.328;8.542;2022-09-09T06:59:04;97994.38;;;19.42;61.99
69971;BME280;57301;50.328;8.542;2022-09-09T07:01:33;98001.88;;;18.14;65.40
69971;BME280;57301;50.328;8.542;2022-09-09T07:04:02;98005.47;;;18.39;65.41
69971;BME280;57301;50.328;8.542;2022-09-09T07:06:33;98002.78;;;17.88;65.92
69971;BME280;57301;50.328;8.542;2022-09-09T07:09:04;98000.97;;;17.75;66.32
69971;BME280;57301;50.328;8.542;2022-09-09T07:11:36;98006.56;;;17.54;67.20
69971;BME280;57301;50.328;8.542;2022-09-09T07:14:04;98010.13;;;17.21;68.22
69971;BME280;57301;50.328;8.542;2022-09-09T07:16:30;98008.84;;;17.37;68.05
69971;BME280;57301;50.328;8.542;2022-09-09T07:19:00;98019.81;;;17.55;67.86
69971;BME280;57301;50.328;8.542;2022-09-09T07:21:28;98010.31;;;17.53;67.74
69971;BME280;57301;50.328;8.542;2022-09-09T07:23:56;98005.94;;;17.65;66.61
69971;BME280;57301;50.328;8.542;2022-09-09T07:26:25;98014.47;;;17.29;67.81
69971;BME280;57301;50.328;8.542;2022-09-09T07:28:51;98011.56;;;16.84;69.82
69971;BME280;57301;50.328;8.542;2022-09-09T07:31:21;98020.47;;;16.91;69.62
69971;BME280;57301;50.328;8.542;2022-09-09T07:33:48;98021.31;;;17.25;69.19
69971;BME280;57301;50.328;8.542;2022-09-09T07:36:20;98023.81;;;17.26;68.88
69971;BME280;57301;50.328;8.542;2022-09-09T07:38:55;98034.34;;;17.61;68.90
69971;BME280;57301;50.328;8.542;2022-09-09T07:41:25;98025.22;;;17.55;68.96
69971;BME280;57301;50.328;8.542;2022-09-09T07:43:52;98037.44;;;17.71;69.51
69971;BME280;57301;50.328;8.542;2022-09-09T07:46:24;98026.91;;;17.43;69.42
69971;BME280;57301;50.328;8.542;2022-09-09T07:48:56;98022.13;;;17.58;69.33
69971;BME280;57301;50.328;8.542;2022-09-09T07:51:25;98031.88;;;16.86;71.10
69971;BME280;57301;50.328;8.542;2022-09-09T07:53:55;98029.00;;;17.08;71.40
69971;BME280;57301;50.328;8.542;2022-09-09T07:56:25;98028.16;;;17.14;69.93
69971;BME280;57301;50.328;8.542;2022-09-09T07:58:53;98040.38;;;17.56;69.30
69971;BME280;57301;50.328;8.542;2022-09-09T08:01:22;98044.25;;;18.00;67.25
69971;BME280;57301;50.328;8.542;2022-09-09T08:04:09;98036.03;;;17.15;68.13
69971;BME280;57301;50.328;8.542;2022-09-09T08:06:39;98050.94;;;17.18;68.16
69971;BME280;57301;50.328;8.542;2022-09-09T08:09:07;98042.88;;;17.18;68.67
69971;BME280;57301;50.328;8.542;2022-09-09T08:11:35;98050.34;;;17.16;68.74
69971;BME280;57301;50.328;8.542;2022-09-09T08:14:08;98050.97;;;17.31;68.23
69971;BME280;57301;50.328;8.542;2022-09-09T08:16:38;98055.06;;;17.67;66.75
69971;BME280;57301;50.328;8.542;2022-09-09T08:19:06;98055.50;;;17.31;68.20
69971;BME280;57301;50.328;8.542;2022-09-09T08:21:35;98060.72;;;17.19;68.06
69971;BME280;57301;50.328;8.542;2022-09-09T08:24:03;98067.75;;;17.13;68.56
69971;BME280;57301;50.328;8.542;2022-09-09T08:26:39;98061.13;;;17.62;67.10
69971;BME280;57301;50.328;8.542;2022-09-09T08:29:09;98060.78;;;18.23;65.43
69971;BME280;57301;50.328;8.542;2022-09-09T08:31:38;98060.22;;;18.08;65.54
69971;BME280;57301;50.328;8.542;2022-09-09T08:34:06;98061.63;;;18.24;65.35
69971;BME280;57301;50.328;8.542;2022-09-09T08:36:37;98058.53;;;18.14;65.42
69971;BME280;57301;50.328;8.542;2022-09-09T08:39:05;98062.69;;;18.10;66.45
69971;BME280;57301;50.328;8.542;2022-09-09T08:41:38;98067.91;;;18.11;66.10
69971;BME280;57301;50.328;8.542;2022-09-09T08:46:44;98078.31;;;17.88;67.58
69971;BME280;57301;50.328;8.542;2022-09-09T08:52:21;98078.75;;;17.58;67.99
69971;BME280;57301;50.328;8.542;2022-09-09T08:54:48;98077.09;;;17.51;67.52
69971;BME280;57301;50.328;8.542;2022-09-09T08:57:21;98070.66;;;17.45;67.85
69971;BME280;57301;50.328;8.542;2022-09-09T08:59:55;98066.69;;;17.94;66.09
69971;BME280;57301;50.328;8.542;2022-09-09T09:02:46;98078.84;;;18.30;64.95
69971;BME280;57301;50.328;8.542;2022-09-09T09:05:40;98070.69;;;18.43;64.38
69971;BME280;57301;50.328;8.542;2022-09-09T09:08:26;98065.44;;;18.55;64.24
69971;BME280;57301;50.328;8.542;2022-09-09T09:10:57;98065.38;;;18.10;65.13
69971;BME280;57301;50.328;8.542;2022-09-09T09:13:52;98067.06;;;18.11;65.86
69971;BME280;57301;50.328;8.542;2022-09-09T09:16:34;98060.38;;;18.71;64.03
69971;BME280;57301;50.328;8.542;2022-09-09T09:19:02;98070.88;;;18.41;65.45
69971;BME280;57301;50.328;8.542;2022-09-09T09:24:20;98070.63;;;18.05;66.99
69971;BME280;57301;50.328;8.542;2022-09-09T09:26:47;98065.53;;;18.28;65.45
69971;BME280;57301;50.328;8.542;2022-09-09T09:29:17;98068.75;;;18.05;66.40
69971;BME280;57301;50.328;8.542;2022-09-09T09:31:55;98064.31;;;18.75;64.45
69971;BME280;57301;50.328;8.542;2022-09-09T09:34:23;98075.44;;;18.92;64.26
69971;BME280;57301;50.328;8.542;2022-09-09T09:36:57;98069.72;;;18.24;66.21
69971;BME280;57301;50.328;8.542;2022-09-09T09:39:29;98066.03;;;18.12;68.42
69971;BME280;57301;50.328;8.542;2022-09-09T09:42:17;98062.22;;;18.26;68.16
69971;BME280;57301;50.328;8.542;2022-09-09T09:44:48;98060.88;;;18.55;66.47
69971;BME280;57301;50.328;8.542;2022-09-09T09:47:17;98056.72;;;18.01;69.59
69971;BME280;57301;50.328;8.542;2022-09-09T09:49:54;98066.00;;;18.63;65.65
69971;BME280;57301;50.328;8.542;2022-09-09T09:52:24;98058.19;;;18.93;59.49
69971;BME280;57301;50.328;8.542;2022-09-09T09:54:52;98040.75;;;19.71;57.96
69971;BME280;57301;50.328;8.542;2022-09-09T09:57:28;98054.19;;;19.52;56.67
69971;BME280;57301;50.328;8.542;2022-09-09T10:00:19;98046.97;;;19.71;56.84
69971;BME280;57301;50.328;8.542;2022-09-09T10:02:47;98048.06;;;18.82;59.23
69971;BME280;57301;50.328;8.542;2022-09-09T10:05:44;98054.09;;;18.33;61.11
69971;BME280;57301;50.328;8.542;2022-09-09T10:08:15;98049.81;;;18.63;60.32
69971;BME280;57301;50.328;8.542;2022-09-09T10:14:20;98032.34;;;18.59;58.31
69971;BME280;57301;50.328;8.542;2022-09-09T10:17:23;98031.59;;;20.08;53.95
69971;BME280;57301;50.328;8.542;2022-09-09T10:20:12;98019.09;;;21.28;50.99
69971;BME280;57301;50.328;8.542;2022-09-09T10:22:51;98013.59;;;21.46;50.45
69971;BME280;57301;50.328;8.542;2022-09-09T10:25:55;98015.72;;;21.79;47.66
69971;BME280;57301;50.328;8.542;2022-09-09T10:31:26;98004.66;;;23.57;44.26
69971;BME280;57301;50.328;8.542;2022-09-09T10:34:17;98014.53;;;21.52;47.13
69971;BME280;57301;50.328;8.542;2022-09-09T10:36:49;98003.22;;;23.32;45.47
69971;BME280;57301;50.328;8.542;2022-09-09T10:39:54;97993.66;;;23.30;44.03
69971;BME280;57301;50.328;8.542;2022-09-09T10:42:31;98002.94;;;23.84;43.64
69971;BME280;57301;50.328;8.542;2022-09-09T10:45:31;97988.69;;;24.21;42.89
69971;BME280;57301;50.328;8.542;2022-09-09T10:48:04;97987.16;;;24.30;40.48
69971;BME280;57301;50.328;8.542;2022-09-09T10:50:48;97992.47;;;23.43;42.64
69971;BME280;57301;50.328;8.542;2022-09-09T10:56:09;98007.16;;;23.42;42.69
69971;BME280;57301;50.328;8.542;2022-09-09T10:59:33;98010.94;;;21.16;47.97
69971;BME280;57301;50.328;8.542;2022-09-09T11:01:39;98005.56;;;21.51;47.84
69971;BME280;57301;50.328;8.542;2022-09-09T11:04:22;98016.94;;;22.64;44.65
69971;BME280;57301;50.328;8.542;2022-09-09T11:06:56;98006.72;;;23.83;42.19
69971;BME280;57301;50.328;8.542;2022-09-09T11:09:30;98004.47;;;21.99;44.98
69971;BME280;57301;50.328;8.542;2022-09-09T11:12:00;98001.00;;;22.27;43.83
69971;BME280;57301;50.328;8.542;2022-09-09T11:14:42;98001.66;;;20.70;47.44
69971;BME280;57301;50.328;8.542;2022-09-09T11:17:16;98013.25;;;20.89;47.19
69971;BME280;57301;50.328;8.542;2022-09-09T11:19:45;98009.31;;;20.06;49.19
69971;BME280;57301;50.328;8.542;2022-09-09T11:22:31;97999.53;;;20.05;49.81
69971;BME280;57301;50.328;8.542;2022-09-09T11:25:15;98014.22;;;19.98;50.99
69971;BME280;57301;50.328;8.542;2022-09-09T11:27:53;98006.91;;;20.17;50.49
69971;BME280;57301;50.328;8.542;2022-09-09T11:30:50;97999.72;;;20.59;49.19
69971;BME280;57301;50.328;8.542;2022-09-09T11:33:36;98015.75;;;20.42;50.14
69971;BME280;57301;50.328;8.542;2022-09-09T11:38:49;98010.47;;;23.10;43.02
69971;BME280;57301;50.328;8.542;2022-09-09T11:41:19;98003.69;;;21.52;46.77
69971;BME280;57301;50.328;8.542;2022-09-09T11:43:51;98001.47;;;21.49;47.13
69971;BME280;57301;50.328;8.542;2022-09-09T11:46:21;98000.53;;;20.59;48.77
69971;BME280;57301;50.328;8.542;2022-09-09T11:49:00;98010.50;;;20.77;48.78
69971;BME280;57301;50.328;8.542;2022-09-09T11:51:29;97999.72;;;20.59;48.22
69971;BME280;57301;50.328;8.542;2022-09-09T11:53:59;98001.56;;;20.47;47.41
69971;BME280;57301;50.328;8.542;2022-09-09T11:56:46;98019.91;;;20.45;47.45
69971;BME280;57301;50.328;8.542;2022-09-09T11:59:27;98019.38;;;19.81;48.58
69971;BME280;57301;50.328;8.542;2022-09-09T12:01:59;98023.97;;;19.80;49.05
69971;BME280;57301;50.328;8.542;2022-09-09T12:04:28;98019.31;;;20.06;49.37
69971;BME280;57301;50.328;8.542;2022-09-09T12:09:50;98024.38;;;20.21;49.10
69971;BME280;57301;50.328;8.542;2022-09-09T12:15:17;98021.19;;;19.69;49.31
69971;BME280;57301;50.328;8.542;2022-09-09T12:17:48;98016.75;;;19.49;49.30
69971;BME280;57301;50.328;8.542;2022-09-09T12:31:26;98011.19;;;23.05;42.42
69971;BME280;57301;50.328;8.542;2022-09-09T12:37:00;98005.69;;;20.91;46.79
69971;BME280;57301;50.328;8.542;2022-09-09T12:39:35;98001.38;;;20.60;47.58
69971;BME280;57301;50.328;8.542;2022-09-09T12:42:04;98006.28;;;20.93;47.65
69971;BME280;57301;50.328;8.542;2022-09-09T12:44:30;98007.03;;;20.40;48.58
69971;BME280;57301;50.328;8.542;2022-09-09T12:47:01;97996.03;;;21.49;46.89
69971;BME280;57301;50.328;8.542;2022-09-09T12:49:32;97995.50;;;22.50;44.85
69971;BME280;57301;50.328;8.542;2022-09-09T12:52:08;97988.63;;;23.05;43.05
69971;BME280;57301;50.328;8.542;2022-09-09T12:54:44;97986.97;;;23.04;43.36
69971;BME280;57301;50.328;8.542;2022-09-09T12:57:16;97990.69;;;22.41;45.14
69971;BME280;57301;50.328;8.542;2022-09-09T12:59:44;97985.22;;;23.65;43.02
69971;BME280;57301;50.328;8.542;2022-09-09T13:02:22;97997.09;;;23.76;41.78
69971;BME280;57301;50.328;8.542;2022-09-09T13:04:49;97982.25;;;25.35;38.95
69971;BME280;57301;50.328;8.542;2022-09-09T13:07:18;97990.75;;;23.70;42.01
69971;BME280;57301;50.328;8.542;2022-09-09T13:09:46;97980.06;;;23.85;42.22
69971;BME280;57301;50.328;8.542;2022-09-09T13:12:23;97974.03;;;23.45;42.00
69971;BME280;57301;50.328;8.542;2022-09-09T13:14:54;97968.28;;;25.00;39.16
69971;BME280;57301;50.328;8.542;2022-09-09T13:17:24;97971.19;;;24.17;39.69
69971;BME280;57301;50.328;8.542;2022-09-09T13:19:53;97976.00;;;23.16;41.75
69971;BME280;57301;50.328;8.542;2022-09-09T13:22:37;97957.94;;;23.43;41.69
69971;BME280;57301;50.328;8.542;2022-09-09T13:27:41;97971.22;;;23.06;43.29
69971;BME280;57301;50.328;8.542;2022-09-09T13:35:31;97958.00;;;23.65;41.92
69971;BME280;57301;50.328;8.542;2022-09-09T13:38:05;97952.00;;;23.85;41.24
69971;BME280;57301;50.328;8.542;2022-09-09T13:40:34;97963.34;;;25.71;39.38
69971;BME280;57301;50.328;8.542;2022-09-09T13:43:00;97955.59;;;24.56;40.47
69971;BME280;57301;50.328;8.542;2022-09-09T13:45:28;97947.38;;;26.68;36.87
69971;BME280;57301;50.328;8.542;2022-09-09T13:47:55;97950.66;;;25.50;36.08
69971;BME280;57301;50.328;8.542;2022-09-09T13:50:29;97948.56;;;25.62;36.60
69971;BME280;57301;50.328;8.542;2022-09-09T13:52:58;97946.75;;;25.03;37.90
69971;BME280;57301;50.328;8.542;2022-09-09T13:55:27;97955.13;;;24.37;39.04
69971;BME280;57301;50.328;8.542;2022-09-09T13:58:03;97934.06;;;24.87;38.48
69971;BME280;57301;50.328;8.542;2022-09-09T14:00:34;97955.31;;;25.91;37.41
69971;BME280;57301;50.328;8.542;2022-09-09T14:03:01;97958.72;;;25.29;37.36
69971;BME280;57301;50.328;8.542;2022-09-09T14:05:31;97959.44;;;26.92;34.33
69971;BME280;57301;50.328;8.542;2022-09-09T14:07:59;97959.84;;;25.01;37.86
69971;BME280;57301;50.328;8.542;2022-09-09T14:10:29;97967.28;;;25.06;38.36
69971;BME280;57301;50.328;8.542;2022-09-09T14:12:56;97954.66;;;24.73;39.22
69971;BME280;57301;50.328;8.542;2022-09-09T14:15:22;97965.53;;;22.91;42.96
69971;BME280;57301;50.328;8.542;2022-09-09T14:17:49;97980.91;;;21.64;46.12
69971;BME280;57301;50.328;8.542;2022-09-09T14:20:16;97974.97;;;20.37;49.39
69971;BME280;57301;50.328;8.542;2022-09-09T14:22:43;97981.03;;;20.69;48.86
69971;BME280;57301;50.328;8.542;2022-09-09T14:25:10;97984.84;;;19.83;50.65
69971;BME280;57301;50.328;8.542;2022-09-09T14:27:39;97990.59;;;20.05;50.63
69971;BME280;57301;50.328;8.542;2022-09-09T14:30:06;97981.16;;;19.96;51.07
69971;BME280;57301;50.328;8.542;2022-09-09T14:32:33;97981.34;;;19.76;51.99
69971;BME280;57301;50.328;8.542;2022-09-09T14:35:00;97982.25;;;20.06;51.58
69971;BME280;57301;50.328;8.542;2022-09-09T14:37:27;97986.63;;;20.07;51.56
69971;BME280;57301;50.328;8.542;2022-09-09T14:39:54;97980.75;;;19.30;53.47
69971;BME280;57301;50.328;8.542;2022-09-09T14:42:21;97975.50;;;19.79;52.36